Aérodrome :







RETROUVEZ-NOUS SUR...

 
LOGIN :

S'inscrire | Disclaimer

   EN    FR    IT 

 









Légende :    VFR   VFR Marginal   IFR   IFR Intensif   IFR Très Intensif
Visi : 
Plafond : 
>= 8 km
>= 3000ft
5 à 8 km
1000 à 3000 ft
1500m à 5 km
500 à 1000 ft
800 à 1500m
200 à 500 ft
< 800m
< 200 ft
Symboles :   Orages  Brouillard  Fortes neiges  Fortes précipitations  Vent > 20 kt






- Altitude de l'aérodrome : 9 ft
- Code IATA : SJU


TJSJ - Luis Munoz Marin Int.

DERNIER METAR :
  • 262156Z 07010KT 10SM FEW020 SCT025 SCT040 29/24 A2992 RMK AO2 SLP131 T02940239

METARs EXPIRÉS :
  • 262056Z 07011KT 10SM FEW023 SCT028 SCT040 30/24 A2992 RMK AO2 SLP132 T03000239 56009
  • 261956Z 08011KT 10SM FEW023 SCT034 SCT050 31/24 A2993 RMK AO2 SLP133 T03060244

TAF TJSJ
Valide du 26 à 18h jusqu'au 27 à 18h UTC


261739Z 2618/2718 07012KT P6SM VCSH SCT025 SCT050
FM262230 09008KT P6SM FEW035 FEW050
FM270630 VRB03KT P6SM VCSH SCT025 BKN050
FM271430 07011KT P6SM SCT030 SCT060
FIR TJZS / Amérique du Nord



MET'MAP, la Météo Aéronautique d'un coup d'oeil ! - Copyright ORBIFLY Décembre 2007 - Disclaimer

ORBIFLY MET'MAP TEAM :

Programmation & Développement : Alexandra Zaïnal
Sur une idée originale de : Baudouin d'Aumeries
Assistance à la programmation : Marc-Olivier Méhu
Soutien technique & logistique : Manuel Goepfert

Contact : metmap@orbifly.com




SOURCES & CREDITS :

   NOAA